Time;durP1;ratioP1;P1;durP2;ratioP2;P2;SDS_P1;SDS_P2;PMS_P1;PMS_P2;Temp;Humidity;BMP_temperature;BMP_pressure;BME280_temperature;BME280_humidity;BME280_pressure;Samples;Min_cycle;Max_cycle;Signal;HPM_P1;HPM_P2
2023/10/30 00:00:24;;;;;;;3.10;1.92;;;14.00;1.00;;;;;;4997054;28;20441;-84
2023/10/30 00:02:50;;;;;;;5.00;2.57;;;14.30;1.00;;;;;;4978777;28;20798;-84
2023/10/30 00:05:16;;;;;;;6.47;2.50;;;14.60;1.00;;;;;;4978140;28;20415;-84
2023/10/30 00:07:41;;;;;;;3.50;2.00;;;14.70;1.00;;;;;;4995844;28;20897;-83
2023/10/30 00:10:07;;;;;;;3.43;2.17;;;14.70;1.00;;;;;;5012904;28;20453;-83
2023/10/30 00:12:33;;;;;;;2.70;2.40;;;14.60;1.00;;;;;;5013362;28;20418;-84
2023/10/30 00:15:03;;;;;;;5.60;2.47;;;14.60;1.00;;;;;;5011979;28;20397;-85
2023/10/30 00:17:30;;;;;;;2.80;2.30;;;14.50;1.00;;;;;;5008971;28;20413;-84
2023/10/30 00:19:55;;;;;;;2.70;2.40;;;14.50;1.00;;;;;;5000795;28;20460;-83
2023/10/30 00:22:21;;;;;;;3.10;2.42;;;14.50;1.00;;;;;;5001029;28;20972;-84
2023/10/30 00:24:47;;;;;;;2.33;2.13;;;14.10;1.00;;;;;;5012436;28;20406;-84
2023/10/30 00:27:12;;;;;;;3.00;1.90;;;14.20;1.00;;;;;;4995475;28;20406;-84
2023/10/30 00:29:40;;;;;;;3.30;2.33;;;14.20;1.00;;;;;;5011711;28;20375;-85
2023/10/30 00:32:06;;;;;;;2.60;1.95;;;14.10;1.00;;;;;;4987955;28;20398;-85
2023/10/30 00:34:32;;;;;;;2.50;2.10;;;13.60;1.00;;;;;;5000039;28;20405;-84
2023/10/30 00:36:58;;;;;;;2.80;2.20;;;14.20;1.00;;;;;;4997810;28;20442;-83
2023/10/30 00:39:23;;;;;;;4.03;1.93;;;14.00;1.00;;;;;;5016536;28;20405;-85
2023/10/30 00:41:49;;;;;;;2.70;2.00;;;14.20;1.00;;;;;;5015885;28;20413;-85
2023/10/30 00:44:17;;;;;;;2.30;2.07;;;14.00;1.00;;;;;;5014355;28;20477;-84
2023/10/30 00:46:43;;;;;;;3.72;2.20;;;14.10;1.00;;;;;;5015806;28;20382;-86
2023/10/30 00:49:09;;;;;;;2.25;2.03;;;14.10;1.00;;;;;;4996909;28;20449;-86
2023/10/30 00:51:34;;;;;;;3.00;2.00;;;14.10;1.00;;;;;;5013076;28;20473;-86
2023/10/30 00:54:00;;;;;;;2.50;1.98;;;14.10;1.00;;;;;;4994815;28;20383;-86
2023/10/30 00:56:25;;;;;;;3.10;2.40;;;14.00;1.00;;;;;;5000176;28;20401;-86
2023/10/30 00:58:52;;;;;;;5.28;2.10;;;13.90;1.00;;;;;;4979400;28;22533;-86
2023/10/30 01:01:19;;;;;;;3.90;2.17;;;14.10;1.00;;;;;;4997209;28;20414;-86
2023/10/30 01:03:45;;;;;;;1.75;1.45;;;14.00;1.00;;;;;;4979147;28;20413;-86
2023/10/30 01:06:11;;;;;;;3.40;2.13;;;14.10;1.00;;;;;;4978288;28;20410;-86
2023/10/30 01:08:37;;;;;;;2.40;2.20;;;14.10;20.20;;;;;;4978635;28;20952;-85
2023/10/30 01:11:02;;;;;;;2.80;2.00;;;14.10;7.40;;;;;;4978742;28;20955;-86
2023/10/30 01:13:28;;;;;;;3.50;2.10;;;14.20;13.90;;;;;;4977894;28;20394;-86
2023/10/30 01:15:56;;;;;;;2.97;1.60;;;14.10;1.00;;;;;;4977621;28;20493;-85
2023/10/30 01:18:22;;;;;;;3.40;2.00;;;14.00;15.50;;;;;;4983495;28;20437;-85
2023/10/30 01:20:48;;;;;;;2.50;2.13;;;14.10;1.00;;;;;;4982801;28;20423;-86
2023/10/30 01:23:14;;;;;;;2.80;2.03;;;14.00;1.00;;;;;;4984519;28;20402;-86
2023/10/30 01:25:40;;;;;;;3.90;1.90;;;13.60;1.00;;;;;;4999810;28;20411;-86
2023/10/30 01:28:05;;;;;;;2.40;1.80;;;13.50;1.00;;;;;;5005401;28;20402;-86
2023/10/30 01:30:31;;;;;;;4.30;2.10;;;13.50;1.00;;;;;;4984397;28;20394;-86
2023/10/30 01:32:56;;;;;;;3.70;2.00;;;13.20;1.00;;;;;;4997305;28;20444;-85
2023/10/30 01:35:22;;;;;;;2.15;1.90;;;13.30;1.00;;;;;;4997530;28;20399;-85
2023/10/30 01:37:47;;;;;;;2.20;2.00;;;13.30;1.00;;;;;;4998390;28;20382;-86
2023/10/30 01:40:15;;;;;;;2.90;2.40;;;13.20;1.00;;;;;;4995514;28;20406;-85
2023/10/30 01:42:40;;;;;;;4.47;1.90;;;13.30;1.00;;;;;;4999075;28;20413;-86
2023/10/30 01:45:06;;;;;;;3.80;1.80;;;13.30;1.00;;;;;;4977795;28;20422;-85
2023/10/30 01:47:32;;;;;;;2.80;2.03;;;13.30;1.00;;;;;;4996776;28;20383;-85
2023/10/30 01:50:00;;;;;;;2.10;2.00;;;13.20;1.00;;;;;;4995647;28;20402;-85
2023/10/30 01:52:28;;;;;;;3.90;2.30;;;13.10;1.00;;;;;;4996059;28;20406;-85
2023/10/30 01:54:54;;;;;;;2.50;1.90;;;13.20;1.00;;;;;;4979413;28;20478;-85
2023/10/30 01:57:22;;;;;;;2.63;2.00;;;13.10;1.00;;;;;;4978933;28;20553;-84
2023/10/30 01:59:52;;;;;;;3.45;1.90;;;13.10;1.00;;;;;;4981051;28;20458;-85
2023/10/30 02:02:19;;;;;;;2.20;2.00;;;13.10;1.00;;;;;;4981677;28;20433;-84
2023/10/30 02:04:45;;;;;;;2.50;2.13;;;13.10;1.00;;;;;;4997715;28;20450;-85
2023/10/30 02:07:11;;;;;;;2.63;1.83;;;13.10;1.00;;;;;;4978160;28;20752;-86
2023/10/30 02:09:37;;;;;;;3.60;1.80;;;13.00;1.00;;;;;;4997901;28;20477;-84
2023/10/30 02:12:03;;;;;;;2.50;1.75;;;12.90;1.00;;;;;;4998269;28;20417;-85
2023/10/30 02:14:29;;;;;;;2.28;2.00;;;12.80;1.00;;;;;;4981141;28;20407;-85
2023/10/30 02:16:54;;;;;;;2.45;2.20;;;12.90;1.00;;;;;;4980097;28;20397;-85
2023/10/30 02:19:24;;;;;;;2.60;2.20;;;12.90;2.60;;;;;;4996288;28;20414;-85
2023/10/30 02:21:52;;;;;;;2.10;1.80;;;13.00;1.00;;;;;;4979347;28;20397;-84
2023/10/30 02:24:18;;;;;;;2.20;2.00;;;12.80;6.70;;;;;;4994267;28;20411;-86
2023/10/30 02:26:43;;;;;;;2.50;2.22;;;12.80;1.00;;;;;;4989028;28;20387;-85
2023/10/30 02:29:09;;;;;;;3.30;2.10;;;12.80;5.70;;;;;;5013965;28;20381;-85
2023/10/30 02:31:35;;;;;;;3.50;2.00;;;12.90;1.00;;;;;;5004957;28;20399;-86
2023/10/30 02:34:01;;;;;;;2.30;2.10;;;12.90;1.00;;;;;;5004517;28;20390;-85
2023/10/30 02:36:27;;;;;;;3.30;2.07;;;12.80;22.90;;;;;;4985513;28;20461;-85
2023/10/30 02:38:52;;;;;;;2.43;2.23;;;12.70;38.90;;;;;;4996103;28;20406;-86
2023/10/30 02:41:19;;;;;;;4.20;2.50;;;12.70;1.00;;;;;;4980384;28;20403;-86
2023/10/30 02:43:44;;;;;;;3.60;2.00;;;12.80;20.80;;;;;;4998520;28;20489;-84
2023/10/30 02:46:10;;;;;;;3.63;2.58;;;12.40;28.80;;;;;;5008457;28;20413;-85
2023/10/30 02:48:36;;;;;;;4.40;2.60;;;12.70;53.00;;;;;;4987740;28;20395;-84
2023/10/30 02:51:01;;;;;;;4.13;2.40;;;12.70;23.00;;;;;;4982785;28;20438;-86
2023/10/30 02:53:27;;;;;;;4.38;2.60;;;13.50;10.70;;;;;;4996674;28;20398;-84
2023/10/30 02:55:52;;;;;;;3.88;2.15;;;12.70;34.00;;;;;;4979014;28;20429;-84
2023/10/30 02:58:18;;;;;;;2.85;2.30;;;12.70;14.90;;;;;;4979791;28;20406;-85
2023/10/30 03:00:43;;;;;;;2.60;2.40;;;12.70;37.60;;;;;;4995315;28;20391;-85
2023/10/30 03:03:09;;;;;;;2.90;2.60;;;12.70;36.90;;;;;;4976751;28;20445;-85
2023/10/30 03:05:35;;;;;;;3.53;2.33;;;12.80;49.30;;;;;;4983295;28;20436;-85
2023/10/30 03:08:01;;;;;;;4.75;2.60;;;12.70;45.60;;;;;;4998461;28;20437;-85
2023/10/30 03:10:27;;;;;;;5.05;2.45;;;12.70;23.90;;;;;;4981317;28;20445;-86
2023/10/30 03:12:53;;;;;;;3.00;2.50;;;12.60;35.50;;;;;;4979113;28;20387;-85
2023/10/30 03:15:19;;;;;;;4.30;2.57;;;12.60;76.00;;;;;;4997202;28;20940;-85
2023/10/30 03:17:44;;;;;;;4.00;2.70;;;12.60;86.00;;;;;;4997505;28;20454;-85
2023/10/30 03:20:11;;;;;;;3.40;2.50;;;12.60;15.90;;;;;;5001283;28;20409;-85
2023/10/30 03:22:37;;;;;;;4.18;2.50;;;12.50;23.10;;;;;;4981632;28;20399;-85
2023/10/30 03:25:04;;;;;;;2.87;2.10;;;12.60;39.80;;;;;;4999442;28;20421;-84
2023/10/30 03:27:29;;;;;;;3.85;2.10;;;12.70;29.00;;;;;;4998150;28;20400;-85
2023/10/30 03:29:55;;;;;;;4.63;2.50;;;12.70;30.50;;;;;;4982259;28;20387;-84
2023/10/30 03:32:21;;;;;;;2.90;2.08;;;12.60;49.50;;;;;;4983404;28;20502;-85
2023/10/30 03:34:46;;;;;;;2.33;2.07;;;12.60;95.80;;;;;;4984956;28;20391;-85
2023/10/30 03:37:12;;;;;;;5.20;2.60;;;12.50;23.80;;;;;;4983955;28;20405;-85
2023/10/30 03:39:37;;;;;;;3.55;2.20;;;12.50;13.30;;;;;;4982752;28;20401;-84
2023/10/30 03:42:03;;;;;;;5.50;2.45;;;12.50;24.40;;;;;;5000627;28;20406;-84
2023/10/30 03:44:29;;;;;;;3.20;2.10;;;12.50;31.00;;;;;;4992363;28;20414;-84
2023/10/30 03:46:55;;;;;;;2.22;2.03;;;12.50;23.90;;;;;;4994458;28;20404;-84
2023/10/30 03:49:21;;;;;;;4.25;2.47;;;12.30;1.00;;;;;;5022184;28;20443;-83
2023/10/30 03:51:48;;;;;;;3.35;2.00;;;12.50;17.30;;;;;;4999558;28;20389;-84
2023/10/30 03:54:13;;;;;;;3.50;2.00;;;12.40;33.60;;;;;;4994685;28;20400;-84
2023/10/30 03:56:39;;;;;;;3.73;2.40;;;12.40;4.40;;;;;;5022530;28;20442;-84
2023/10/30 03:59:05;;;;;;;4.95;2.58;;;12.40;24.20;;;;;;5020987;28;20377;-84
2023/10/30 04:01:30;;;;;;;4.30;2.70;;;12.30;44.00;;;;;;4992288;28;20402;-85
2023/10/30 04:03:56;;;;;;;3.97;2.20;;;12.30;53.00;;;;;;4990230;28;20393;-84
2023/10/30 04:06:21;;;;;;;3.13;2.83;;;12.40;53.10;;;;;;5011033;28;20396;-84
2023/10/30 04:08:47;;;;;;;3.78;2.50;;;12.40;93.20;;;;;;5012103;28;20523;-85
2023/10/30 04:11:16;;;;;;;3.55;2.63;;;12.40;56.10;;;;;;5018025;28;20385;-85
2023/10/30 04:13:41;;;;;;;3.70;2.50;;;12.60;55.50;;;;;;5018238;28;20388;-85
2023/10/30 04:16:10;;;;;;;5.67;2.23;;;12.40;92.80;;;;;;5018917;28;20389;-84
2023/10/30 04:18:36;;;;;;;3.50;2.13;;;12.30;96.00;;;;;;4991667;28;20414;-84
2023/10/30 04:21:02;;;;;;;5.32;2.40;;;12.30;58.70;;;;;;4985897;28;20433;-84
2023/10/30 04:23:28;;;;;;;2.90;2.22;;;12.30;59.30;;;;;;5001407;28;20386;-84
2023/10/30 04:25:53;;;;;;;3.30;2.50;;;12.30;44.20;;;;;;4996035;28;20462;-84
2023/10/30 04:28:19;;;;;;;3.50;2.30;;;12.30;34.60;;;;;;5023028;28;20443;-84
2023/10/30 04:30:44;;;;;;;3.37;2.00;;;12.20;63.20;;;;;;5005894;28;20396;-84
2023/10/30 04:33:10;;;;;;;3.42;2.50;;;12.40;48.10;;;;;;5006002;28;20397;-83
2023/10/30 04:35:36;;;;;;;4.18;2.33;;;12.30;42.60;;;;;;5018371;28;20402;-84
2023/10/30 04:38:01;;;;;;;3.25;2.20;;;12.30;52.50;;;;;;5003330;28;20390;-85
2023/10/30 04:40:27;;;;;;;2.80;2.10;;;12.30;51.60;;;;;;5002256;28;20401;-85
2023/10/30 04:42:52;;;;;;;3.97;2.27;;;12.30;99.90;;;;;;4984467;28;20410;-84
2023/10/30 04:45:18;;;;;;;3.85;2.30;;;12.30;99.90;;;;;;4984970;28;20485;-85
2023/10/30 04:47:44;;;;;;;4.13;2.30;;;12.30;99.90;;;;;;5003847;28;20899;-84
2023/10/30 04:50:09;;;;;;;2.85;2.30;;;12.10;99.90;;;;;;4999744;28;20386;-84
2023/10/30 04:52:35;;;;;;;3.22;2.28;;;12.30;99.90;;;;;;5001586;28;20388;-84
2023/10/30 04:55:00;;;;;;;3.90;2.40;;;12.20;99.90;;;;;;4982732;28;20398;-84
2023/10/30 04:57:26;;;;;;;4.03;2.03;;;12.00;99.90;;;;;;5000456;28;20405;-85
2023/10/30 04:59:52;;;;;;;4.00;2.20;;;12.00;84.40;;;;;;4999767;28;20434;-85
2023/10/30 05:02:17;;;;;;;4.40;2.60;;;12.00;99.90;;;;;;4983505;28;20386;-85
2023/10/30 05:04:43;;;;;;;4.37;2.20;;;12.00;96.00;;;;;;5000147;28;20417;-85
2023/10/30 05:07:08;;;;;;;7.40;2.40;;;12.00;85.80;;;;;;5001797;28;20394;-84
2023/10/30 05:09:34;;;;;;;3.28;2.25;;;12.00;99.90;;;;;;5004816;28;20398;-84
2023/10/30 05:12:00;;;;;;;3.87;2.00;;;12.10;99.90;;;;;;5031592;28;20415;-83
2023/10/30 05:14:26;;;;;;;3.72;2.20;;;12.00;99.90;;;;;;5038121;28;20401;-83
2023/10/30 05:16:52;;;;;;;3.42;2.40;;;12.00;99.90;;;;;;5021197;28;20380;-84
2023/10/30 05:19:18;;;;;;;3.75;1.70;;;12.00;99.90;;;;;;5036977;28;20403;-83
2023/10/30 05:21:43;;;;;;;3.90;2.13;;;12.00;99.90;;;;;;5037391;28;20420;-83
2023/10/30 05:24:09;;;;;;;3.13;2.20;;;11.70;99.90;;;;;;5036887;28;20404;-83
2023/10/30 05:26:34;;;;;;;5.53;2.60;;;11.90;99.90;;;;;;4992789;28;20433;-84
2023/10/30 05:29:00;;;;;;;5.65;2.20;;;11.80;99.90;;;;;;5006582;23;20437;-87
2023/10/30 05:31:26;;;;;;;3.87;2.60;;;11.80;99.90;;;;;;4971600;28;20458;-87
2023/10/30 05:33:51;;;;;;;2.90;2.40;;;11.80;99.90;;;;;;4985852;28;20421;-87
2023/10/30 05:36:17;;;;;;;4.70;2.45;;;11.60;99.90;;;;;;4980636;28;20457;-88
2023/10/30 05:38:42;;;;;;;3.90;2.53;;;11.50;99.90;;;;;;4975299;28;20400;-88
2023/10/30 05:41:08;;;;;;;4.40;2.20;;;11.30;99.90;;;;;;4975377;28;20395;-88
2023/10/30 05:43:33;;;;;;;3.60;2.70;;;11.40;99.90;;;;;;4943460;29;20454;-87
2023/10/30 05:45:59;;;;;;;5.53;2.60;;;11.30;99.90;;;;;;4919083;29;20939;-87
2023/10/30 05:48:24;;;;;;;6.50;2.90;;;11.30;99.90;;;;;;4929470;29;20439;-87
2023/10/30 05:50:50;;;;;;;3.37;2.73;;;11.30;99.90;;;;;;4937200;29;20463;-88
2023/10/30 05:53:16;;;;;;;4.13;3.20;;;11.30;99.90;;;;;;4937045;28;20435;-88
2023/10/30 05:55:42;;;;;;;7.13;3.20;;;11.40;99.90;;;;;;4935398;29;20403;-87
2023/10/30 05:58:08;;;;;;;4.38;2.85;;;11.30;99.90;;;;;;4937525;29;20746;-88
2023/10/30 06:00:34;;;;;;;7.23;2.90;;;11.30;99.90;;;;;;4954526;29;20486;-87
2023/10/30 06:03:00;;;;;;;6.27;2.93;;;11.20;99.90;;;;;;4936987;29;20429;-87
2023/10/30 06:05:26;;;;;;;2.47;2.28;;;11.30;99.90;;;;;;4937841;29;20413;-88
2023/10/30 06:07:52;;;;;;;2.80;2.60;;;11.30;99.90;;;;;;4937949;29;20914;-88
2023/10/30 06:10:19;;;;;;;3.17;2.80;;;11.30;99.90;;;;;;4937826;29;20421;-88
2023/10/30 06:12:47;;;;;;;4.00;2.50;;;11.30;99.90;;;;;;4954889;29;20446;-88
2023/10/30 06:15:13;;;;;;;3.35;2.60;;;11.20;99.90;;;;;;4936308;29;20394;-87
2023/10/30 06:17:38;;;;;;;4.60;3.10;;;11.10;99.90;;;;;;4936464;29;20762;-87
2023/10/30 06:20:09;;;;;;;3.90;2.70;;;11.30;99.90;;;;;;4936736;29;20417;-87
2023/10/30 06:22:34;;;;;;;4.18;2.40;;;11.20;99.90;;;;;;4936456;29;20405;-87
2023/10/30 06:25:00;;;;;;;5.90;2.80;;;11.30;99.90;;;;;;4953676;28;20438;-87
2023/10/30 06:27:30;;;;;;;5.50;2.60;;;11.20;99.90;;;;;;4953528;28;20393;-88
2023/10/30 06:29:56;;;;;;;2.50;2.30;;;11.30;99.90;;;;;;4935822;29;20413;-87
2023/10/30 06:32:21;;;;;;;3.80;2.60;;;11.30;99.90;;;;;;4930649;28;20416;-87
2023/10/30 06:34:47;;;;;;;5.40;2.40;;;11.30;99.90;;;;;;4927430;28;20767;-86
2023/10/30 06:37:14;;;;;;;4.43;2.47;;;11.20;99.90;;;;;;4928979;29;20911;-87
2023/10/30 06:39:40;;;;;;;2.50;2.30;;;11.20;99.90;;;;;;4945909;28;20395;-87
2023/10/30 06:42:05;;;;;;;5.10;2.50;;;11.20;99.90;;;;;;4949986;28;20530;-88
2023/10/30 06:44:31;;;;;;;4.97;2.83;;;11.30;99.90;;;;;;4963269;28;20459;-88
2023/10/30 06:46:58;;;;;;;5.83;2.23;;;11.20;99.90;;;;;;4960690;28;20398;-87
2023/10/30 06:49:23;;;;;;;3.65;2.40;;;11.30;99.90;;;;;;4961460;29;20408;-82
2023/10/30 06:51:49;;;;;;;6.45;2.67;;;11.30;99.90;;;;;;4958957;29;20406;-85
2023/10/30 06:54:15;;;;;;;4.50;2.60;;;11.30;99.90;;;;;;4961474;29;20385;-86
2023/10/30 06:56:40;;;;;;;3.10;2.40;;;11.30;99.90;;;;;;4979224;29;20420;-87
2023/10/30 06:59:09;;;;;;;3.33;2.00;;;10.70;99.90;;;;;;4975510;28;20416;-88
2023/10/30 07:01:45;;;;;;;4.00;2.30;;;11.50;99.90;;;;;;4961604;29;20473;-88
2023/10/30 07:04:11;;;;;;;3.45;2.30;;;11.50;99.90;;;;;;4972900;28;20752;-88
2023/10/30 07:06:37;;;;;;;4.43;2.60;;;11.50;99.90;;;;;;4941878;29;20397;-87
2023/10/30 07:09:06;;;;;;;4.80;2.50;;;11.60;99.90;;;;;;4941379;29;20396;-87
2023/10/30 07:11:35;;;;;;;3.85;2.92;;;11.60;99.90;;;;;;4940751;29;20906;-87
2023/10/30 07:14:02;;;;;;;3.40;2.47;;;11.60;99.90;;;;;;4939999;29;20806;-87
2023/10/30 07:16:28;;;;;;;3.67;2.77;;;11.70;99.90;;;;;;4956969;28;20429;-87
2023/10/30 07:18:55;;;;;;;4.50;3.00;;;11.90;99.90;;;;;;4940400;29;20398;-86
2023/10/30 07:21:21;;;;;;;6.30;2.90;;;11.60;99.90;;;;;;4940412;29;20394;-87
2023/10/30 07:23:46;;;;;;;4.80;2.67;;;11.50;99.90;;;;;;4941564;29;20397;-87
2023/10/30 07:26:12;;;;;;;4.85;2.70;;;11.60;99.90;;;;;;4958065;29;20424;-86
2023/10/30 07:28:38;;;;;;;5.68;3.00;;;11.40;99.90;;;;;;4957710;28;20409;-86
2023/10/30 07:31:03;;;;;;;3.97;2.33;;;11.60;99.90;;;;;;4941558;29;20400;-87
2023/10/30 07:33:29;;;;;;;5.20;2.90;;;11.60;99.90;;;;;;4940941;29;20421;-87
2023/10/30 07:35:55;;;;;;;4.00;2.90;;;11.50;99.90;;;;;;4940390;29;20402;-86
2023/10/30 07:38:20;;;;;;;5.30;2.77;;;11.50;99.90;;;;;;4957488;29;20400;-87
2023/10/30 07:40:46;;;;;;;3.47;2.60;;;11.60;99.90;;;;;;4940973;29;20393;-86
2023/10/30 07:43:12;;;;;;;5.20;2.85;;;11.70;99.90;;;;;;4957997;28;20800;-86
2023/10/30 07:45:41;;;;;;;4.47;2.63;;;11.80;99.90;;;;;;4951817;28;20456;-85
2023/10/30 07:48:06;;;;;;;4.10;2.60;;;11.90;99.90;;;;;;4941220;29;20390;-85
2023/10/30 07:50:32;;;;;;;4.40;2.20;;;11.90;99.90;;;;;;4940128;29;20417;-86
2023/10/30 07:52:59;;;;;;;3.97;2.30;;;11.90;99.90;;;;;;4939171;29;20409;-86
2023/10/30 07:55:24;;;;;;;4.68;2.90;;;12.10;99.90;;;;;;4939437;29;20404;-86
2023/10/30 07:57:50;;;;;;;4.27;2.70;;;12.20;99.90;;;;;;4938815;29;20394;-85
2023/10/30 08:00:16;;;;;;;4.30;2.73;;;12.30;99.90;;;;;;4938622;29;20410;-85
2023/10/30 08:02:42;;;;;;;4.85;3.28;;;12.40;99.90;;;;;;4919909;29;20406;-85
2023/10/30 08:05:08;;;;;;;4.95;2.95;;;12.60;99.90;;;;;;4925795;29;20411;-86
2023/10/30 08:07:35;;;;;;;4.50;2.80;;;12.70;99.90;;;;;;4939356;29;20395;-85
2023/10/30 08:10:00;;;;;;;6.40;3.35;;;12.70;99.90;;;;;;4940684;29;20396;-86
2023/10/30 08:12:26;;;;;;;7.03;4.00;;;12.80;99.90;;;;;;4940323;29;20414;-86
2023/10/30 08:14:53;;;;;;;5.20;3.60;;;12.60;99.90;;;;;;4939648;29;20403;-85
2023/10/30 08:17:19;;;;;;;4.20;3.80;;;12.90;99.90;;;;;;4934409;29;20418;-86
2023/10/30 08:19:45;;;;;;;5.75;4.70;;;13.00;99.90;;;;;;4942002;29;20481;-86
2023/10/30 08:22:10;;;;;;;6.43;5.82;;;13.10;99.90;;;;;;4957406;29;20404;-86
2023/10/30 08:24:36;;;;;;;7.07;5.65;;;12.80;99.90;;;;;;4956273;28;20433;-86
2023/10/30 08:27:01;;;;;;;7.20;6.00;;;13.00;99.90;;;;;;4955877;29;20484;-86
2023/10/30 08:29:27;;;;;;;7.63;5.87;;;12.90;99.90;;;;;;4938718;29;20497;-86
2023/10/30 08:31:52;;;;;;;6.10;5.50;;;13.00;99.90;;;;;;4938136;29;20405;-86
2023/10/30 08:34:18;;;;;;;10.88;6.72;;;13.00;99.90;;;;;;4955455;28;20382;-86
2023/10/30 08:36:47;;;;;;;7.50;6.05;;;13.00;99.90;;;;;;4939022;29;20774;-85
2023/10/30 08:39:13;;;;;;;7.80;7.00;;;13.10;99.90;;;;;;4955499;29;20393;-86
2023/10/30 08:41:39;;;;;;;7.35;6.45;;;13.10;99.90;;;;;;4937911;29;20413;-85
2023/10/30 08:44:05;;;;;;;9.25;6.80;;;13.00;99.90;;;;;;4938114;29;20397;-86
2023/10/30 08:46:32;;;;;;;7.10;6.40;;;13.10;99.90;;;;;;4955635;28;20425;-86
2023/10/30 08:48:58;;;;;;;7.35;6.57;;;13.10;99.90;;;;;;4937836;29;21017;-86
2023/10/30 08:51:23;;;;;;;7.70;6.40;;;13.00;99.90;;;;;;4939133;29;20473;-86
2023/10/30 08:53:50;;;;;;;7.90;7.10;;;14.90;99.90;;;;;;4938416;29;20401;-86
2023/10/30 08:56:16;;;;;;;6.83;6.13;;;13.30;99.90;;;;;;4940503;29;21137;-87
2023/10/30 08:58:42;;;;;;;7.40;6.60;;;13.30;99.90;;;;;;4938198;29;20402;-86
2023/10/30 09:01:08;;;;;;;7.20;6.50;;;13.30;99.90;;;;;;4954866;28;20398;-86
2023/10/30 09:03:33;;;;;;;9.13;7.70;;;13.40;99.90;;;;;;4937661;29;20402;-86
2023/10/30 09:05:59;;;;;;;9.33;8.10;;;13.40;99.90;;;;;;4954410;29;20513;-86
2023/10/30 09:08:25;;;;;;;8.48;7.18;;;13.50;99.90;;;;;;4937439;29;20493;-85
2023/10/30 09:10:51;;;;;;;8.18;7.28;;;13.50;99.90;;;;;;4936977;29;20557;-86
2023/10/30 09:13:17;;;;;;;9.07;7.18;;;13.60;99.90;;;;;;4937358;29;21001;-85
2023/10/30 09:15:42;;;;;;;8.50;7.10;;;13.60;99.90;;;;;;4954516;29;20426;-86
2023/10/30 09:18:08;;;;;;;8.20;7.40;;;13.50;99.90;;;;;;4937368;29;20405;-87
2023/10/30 09:20:34;;;;;;;9.23;7.77;;;13.40;99.90;;;;;;4957633;29;20488;-86
2023/10/30 09:22:59;;;;;;;7.90;7.10;;;13.60;99.90;;;;;;4936924;29;20420;-86
2023/10/30 09:25:25;;;;;;;8.63;7.73;;;15.00;99.90;;;;;;4937057;29;20433;-86
2023/10/30 09:27:50;;;;;;;7.20;6.50;;;13.60;99.90;;;;;;4936982;29;20413;-86
2023/10/30 09:30:18;;;;;;;7.27;6.57;;;13.70;99.90;;;;;;4937252;29;20478;-86
2023/10/30 09:32:44;;;;;;;9.70;7.40;;;13.70;99.90;;;;;;4937401;29;20397;-86
2023/10/30 09:35:09;;;;;;;7.40;6.70;;;13.80;99.90;;;;;;4936745;29;20457;-87
2023/10/30 09:37:35;;;;;;;7.60;6.80;;;13.90;99.90;;;;;;4936494;29;20452;-86
2023/10/30 09:40:03;;;;;;;7.20;6.57;;;13.80;99.90;;;;;;4936536;29;20401;-86
2023/10/30 09:42:29;;;;;;;6.47;5.78;;;13.70;99.90;;;;;;4936941;29;20946;-86
2023/10/30 09:44:55;;;;;;;7.35;5.97;;;13.70;99.90;;;;;;4953827;28;20400;-85
2023/10/30 09:47:24;;;;;;;7.20;6.50;;;13.80;99.90;;;;;;4954104;29;20401;-86
2023/10/30 09:49:51;;;;;;;6.20;5.60;;;13.90;99.90;;;;;;4954030;29;20393;-86
2023/10/30 09:52:19;;;;;;;6.30;5.70;;;13.90;99.90;;;;;;4936424;29;20441;-87
2023/10/30 09:54:46;;;;;;;6.15;5.50;;;14.00;99.90;;;;;;4953902;29;20392;-87
2023/10/30 09:57:13;;;;;;;7.32;5.88;;;13.90;99.90;;;;;;4935347;29;20894;-87
2023/10/30 09:59:43;;;;;;;7.10;5.80;;;14.00;99.90;;;;;;4953821;28;20822;-88
2023/10/30 10:02:09;;;;;;;6.60;5.47;;;14.40;99.90;;;;;;4936954;29;20488;-88
2023/10/30 10:04:38;;;;;;;5.90;5.25;;;14.10;99.90;;;;;;4954324;28;20473;-88
2023/10/30 10:07:05;;;;;;;7.50;4.88;;;13.90;99.90;;;;;;4935841;29;20444;-89
2023/10/30 10:09:31;;;;;;;6.75;5.00;;;14.10;99.90;;;;;;4937543;29;20390;-88
2023/10/30 10:11:57;;;;;;;6.47;5.85;;;14.20;99.90;;;;;;4937574;29;20405;-89
2023/10/30 10:14:22;;;;;;;6.80;5.80;;;14.30;99.90;;;;;;4951220;29;20401;-89
2023/10/30 10:16:48;;;;;;;5.60;5.10;;;14.00;99.90;;;;;;4951909;29;20393;-89
2023/10/30 10:19:21;;;;;;;6.25;5.60;;;14.20;99.90;;;;;;4948926;29;20425;-90
2023/10/30 10:21:49;;;;;;;6.20;5.38;;;14.00;99.90;;;;;;4962008;28;20398;-89
2023/10/30 10:24:29;;;;;;;5.82;5.30;;;13.90;99.90;;;;;;4937121;29;20444;-88
2023/10/30 10:26:58;;;;;;;6.07;5.47;;;14.00;99.90;;;;;;4953449;29;20406;-89
2023/10/30 10:29:23;;;;;;;6.20;5.70;;;13.70;99.90;;;;;;4936132;29;20922;-87
2023/10/30 10:31:49;;;;;;;6.53;5.93;;;14.20;99.90;;;;;;4934560;29;20417;-87
2023/10/30 10:34:15;;;;;;;7.22;5.70;;;13.80;99.90;;;;;;4917290;29;20400;-86
2023/10/30 10:36:41;;;;;;;6.93;5.70;;;14.00;99.90;;;;;;4942204;29;20453;-87
2023/10/30 10:39:06;;;;;;;6.53;5.63;;;14.20;99.90;;;;;;4936111;29;20433;-87
2023/10/30 10:41:32;;;;;;;6.65;6.00;;;14.10;99.90;;;;;;4936506;29;20453;-87
2023/10/30 10:43:59;;;;;;;5.83;5.33;;;14.20;99.90;;;;;;4929490;29;20495;-87
2023/10/30 10:46:25;;;;;;;7.20;6.50;;;13.50;99.90;;;;;;4916744;29;20471;-86
2023/10/30 10:48:50;;;;;;;10.77;7.03;;;14.10;99.90;;;;;;4941684;29;20386;-86
2023/10/30 10:51:27;;;;;;;8.70;6.50;;;14.00;99.90;;;;;;4941578;28;20378;-86
2023/10/30 10:53:54;;;;;;;7.60;6.80;;;13.50;99.90;;;;;;4954340;28;20414;-86
2023/10/30 10:56:22;;;;;;;11.10;6.60;;;13.90;99.90;;;;;;4936904;29;20401;-86
2023/10/30 10:58:58;;;;;;;8.80;6.80;;;14.00;99.90;;;;;;4953398;28;20397;-86
2023/10/30 11:01:26;;;;;;;8.95;6.63;;;14.10;99.90;;;;;;4953686;29;20874;-86
2023/10/30 11:03:52;;;;;;;10.77;7.35;;;14.00;99.90;;;;;;4952370;28;20433;-85
2023/10/30 11:06:20;;;;;;;8.55;6.95;;;14.10;99.90;;;;;;4940244;29;20488;-84
2023/10/30 11:08:56;;;;;;;9.23;6.53;;;14.20;99.90;;;;;;4971165;29;20386;-86
2023/10/30 11:11:40;;;;;;;6.88;5.90;;;14.20;99.90;;;;;;4944894;29;20419;-87
2023/10/30 11:14:06;;;;;;;8.32;6.00;;;14.60;99.90;;;;;;4935415;29;20432;-86
2023/10/30 11:16:48;;;;;;;6.23;5.73;;;14.50;99.90;;;;;;4943339;29;20769;-86
2023/10/30 11:19:19;;;;;;;7.60;5.80;;;14.60;99.90;;;;;;4917302;29;20502;-85
2023/10/30 11:22:24;;;;;;;6.45;5.85;;;14.70;99.90;;;;;;4940004;29;20387;-85
2023/10/30 11:24:50;;;;;;;6.93;6.20;;;14.80;99.90;;;;;;4933609;29;20481;-86
2023/10/30 11:27:25;;;;;;;7.17;5.80;;;15.00;99.90;;;;;;4936538;29;20497;-85
2023/10/30 11:29:57;;;;;;;8.80;6.30;;;15.30;99.90;;;;;;5016795;23;20434;-84
2023/10/30 11:32:27;;;;;;;6.32;5.75;;;15.50;99.90;;;;;;5002065;28;20381;-84
2023/10/30 11:34:53;;;;;;;7.47;6.28;;;15.50;99.90;;;;;;5010848;28;20386;-84
2023/10/30 11:37:21;;;;;;;8.90;6.50;;;15.50;99.90;;;;;;5006256;28;20410;-84
2023/10/30 11:39:49;;;;;;;7.80;5.68;;;15.40;99.90;;;;;;4971421;28;20424;-83
2023/10/30 11:42:24;;;;;;;7.90;5.90;;;15.40;99.90;;;;;;4984885;28;20381;-84
2023/10/30 11:44:51;;;;;;;7.07;6.05;;;15.20;99.90;;;;;;4984860;28;20913;-84
2023/10/30 11:47:22;;;;;;;7.82;5.88;;;15.30;99.90;;;;;;4987890;28;20415;-83
2023/10/30 11:49:47;;;;;;;7.35;5.90;;;15.70;99.90;;;;;;4971386;28;20408;-81
2023/10/30 11:52:13;;;;;;;6.47;5.78;;;15.50;99.90;;;;;;4987108;28;20407;-84
2023/10/30 11:54:44;;;;;;;6.68;5.45;;;15.60;99.90;;;;;;4987659;28;20396;-84
2023/10/30 11:57:11;;;;;;;5.88;5.38;;;15.70;99.90;;;;;;4970921;28;20402;-83
2023/10/30 11:59:36;;;;;;;6.87;5.73;;;15.90;99.90;;;;;;4976618;28;20391;-82
2023/10/30 12:02:05;;;;;;;7.67;5.47;;;15.00;99.90;;;;;;4966672;29;20447;-84
2023/10/30 12:04:33;;;;;;;5.97;5.38;;;15.30;99.90;;;;;;4947193;29;20402;-84
2023/10/30 12:07:00;;;;;;;8.43;5.40;;;15.80;99.90;;;;;;4965701;28;20394;-84
2023/10/30 12:09:25;;;;;;;6.00;4.95;;;15.90;99.90;;;;;;4966284;29;20394;-83
2023/10/30 12:11:52;;;;;;;6.13;5.63;;;15.80;99.90;;;;;;4948410;29;20398;-84
2023/10/30 12:14:21;;;;;;;6.28;5.68;;;15.50;99.90;;;;;;4965084;29;20393;-83
2023/10/30 12:16:49;;;;;;;7.80;5.75;;;15.50;99.90;;;;;;4973658;29;20418;-82
2023/10/30 12:19:21;;;;;;;5.80;5.20;;;15.20;99.90;;;;;;4972091;29;20397;-84
2023/10/30 12:21:48;;;;;;;6.90;5.50;;;15.40;99.90;;;;;;4955389;29;20405;-84
2023/10/30 12:24:20;;;;;;;6.88;5.60;;;14.90;99.90;;;;;;4971589;29;20448;-84
2023/10/30 12:26:48;;;;;;;6.72;5.50;;;15.50;99.90;;;;;;4950767;29;20398;-84
2023/10/30 12:29:28;;;;;;;9.57;6.15;;;15.50;99.90;;;;;;4949406;29;20918;-82
2023/10/30 12:32:02;;;;;;;5.85;5.35;;;15.50;99.90;;;;;;4954115;29;20487;-83
2023/10/30 12:34:28;;;;;;;6.30;5.70;;;15.50;99.90;;;;;;4973420;28;20397;-83
2023/10/30 12:36:53;;;;;;;7.70;5.13;;;15.30;99.90;;;;;;4973481;28;20394;-85
2023/10/30 12:39:21;;;;;;;5.70;5.10;;;17.20;99.90;;;;;;4952463;29;20405;-83
2023/10/30 12:41:52;;;;;;;5.30;4.80;;;15.30;99.90;;;;;;4971201;28;20887;-83
2023/10/30 12:44:18;;;;;;;7.80;5.50;;;15.40;99.90;;;;;;4958841;28;20407;-84